Time;durP1;ratioP1;P1;durP2;ratioP2;P2;SDS_P1;SDS_P2;PMS_P1;PMS_P2;Temp;Humidity;BMP_temperature;BMP_pressure;BME280_temperature;BME280_humidity;BME280_pressure;Samples;Min_cycle;Max_cycle;Signal;HPM_P1;HPM_P2
2022/01/13 00:00:29;;;;;;;59.35;35.25;;;4.70;99.90;;;;;;4949743;29;20401;-81
2022/01/13 00:02:55;;;;;;;57.60;35.17;;;4.70;99.90;;;;;;4949328;29;20395;-83
2022/01/13 00:05:27;;;;;;;58.92;36.28;;;4.70;99.90;;;;;;4951488;29;20389;-81
2022/01/13 00:07:55;;;;;;;56.75;36.53;;;4.70;99.90;;;;;;4951194;29;20388;-81
2022/01/13 00:10:22;;;;;;;66.60;37.70;;;4.70;99.90;;;;;;4945940;28;20417;-84
2022/01/13 00:12:56;;;;;;;58.88;37.55;;;4.60;99.90;;;;;;4932630;29;20374;-82
2022/01/13 00:25:38;;;;;;;57.42;37.92;;;4.70;99.90;;;;;;4929329;29;20426;-82
2022/01/13 00:28:15;;;;;;;62.45;39.08;;;4.70;99.90;;;;;;4930389;29;20718;-81
2022/01/13 00:30:41;;;;;;;62.63;38.63;;;4.70;99.90;;;;;;4930692;29;20421;-82
2022/01/13 00:33:09;;;;;;;60.60;38.30;;;4.80;99.90;;;;;;4931856;29;20752;-82
2022/01/13 00:35:35;;;;;;;58.35;39.03;;;4.80;99.90;;;;;;4931916;29;20796;-82
2022/01/13 00:38:01;;;;;;;61.83;40.25;;;4.80;99.90;;;;;;4930263;29;20386;-81
2022/01/13 00:40:26;;;;;;;61.03;38.95;;;4.80;99.90;;;;;;4930105;29;20414;-80
2022/01/13 00:42:52;;;;;;;64.20;39.13;;;4.80;99.90;;;;;;4931761;29;20388;-82
2022/01/13 00:45:17;;;;;;;59.50;39.33;;;4.70;99.90;;;;;;4931495;29;20385;-83
2022/01/13 00:47:44;;;;;;;59.47;40.20;;;4.80;99.90;;;;;;4930078;29;20801;-82
2022/01/13 00:50:10;;;;;;;64.47;39.90;;;4.80;99.90;;;;;;4931741;29;20389;-82
2022/01/13 00:52:35;;;;;;;63.10;39.85;;;4.80;99.90;;;;;;4931348;29;20401;-82
2022/01/13 00:55:07;;;;;;;65.15;39.47;;;4.80;99.90;;;;;;4929378;29;20410;-82
2022/01/13 00:57:32;;;;;;;66.82;41.17;;;4.80;99.90;;;;;;4931785;29;20792;-81
2022/01/13 00:59:59;;;;;;;66.03;42.47;;;4.70;99.90;;;;;;4931324;29;20417;-81
2022/01/13 01:02:26;;;;;;;63.65;41.65;;;4.90;99.90;;;;;;4934523;29;20468;-82
2022/01/13 01:04:51;;;;;;;66.13;41.40;;;4.90;99.90;;;;;;4935440;29;20405;-82
2022/01/13 01:07:17;;;;;;;67.05;42.03;;;4.80;99.90;;;;;;4934282;29;20382;-83
2022/01/13 01:09:49;;;;;;;67.67;42.30;;;4.90;99.90;;;;;;4937472;29;20404;-83
2022/01/13 01:12:15;;;;;;;67.07;41.53;;;4.80;99.90;;;;;;4954118;29;20462;-81
2022/01/13 01:14:47;;;;;;;69.32;42.20;;;4.80;99.90;;;;;;4952739;29;20587;-81
2022/01/13 01:17:17;;;;;;;68.22;43.03;;;4.80;99.90;;;;;;4952125;28;20856;-81
2022/01/13 01:19:50;;;;;;;71.22;43.67;;;4.80;99.90;;;;;;4953582;29;20486;-83
2022/01/13 01:25:01;;;;;;;72.88;43.40;;;4.80;99.90;;;;;;4953517;28;20405;-82
2022/01/13 01:27:32;;;;;;;66.60;42.13;;;4.80;99.90;;;;;;4954010;29;20380;-81
2022/01/13 01:30:59;;;;;;;67.20;42.03;;;4.80;99.90;;;;;;4952381;29;20910;-81
2022/01/13 01:32:53;;;;;;;68.80;44.05;;;4.80;99.90;;;;;;4948946;28;20408;-81
2022/01/13 01:35:24;;;;;;;65.43;41.37;;;4.70;99.90;;;;;;4952261;29;20491;-83
2022/01/13 01:37:49;;;;;;;64.93;42.80;;;4.80;99.90;;;;;;4952886;29;20423;-82
2022/01/13 01:40:16;;;;;;;66.57;42.50;;;4.80;99.90;;;;;;4952105;28;20432;-79
2022/01/13 01:42:42;;;;;;;63.47;40.60;;;4.80;99.90;;;;;;4952031;29;20526;-81
2022/01/13 01:45:10;;;;;;;68.10;42.28;;;4.70;99.90;;;;;;4951589;29;21557;-81
2022/01/13 01:47:35;;;;;;;70.68;41.85;;;4.70;99.90;;;;;;4953552;29;20396;-81
2022/01/13 01:50:10;;;;;;;69.28;42.65;;;4.80;99.90;;;;;;4953086;29;20403;-82
2022/01/13 01:52:37;;;;;;;65.50;41.80;;;4.80;99.90;;;;;;4953298;29;20392;-82
2022/01/13 01:55:04;;;;;;;65.78;42.45;;;4.70;99.90;;;;;;4952477;28;20412;-80
2022/01/13 01:57:30;;;;;;;62.47;41.95;;;4.80;99.90;;;;;;4953126;29;20395;-81
2022/01/13 01:59:55;;;;;;;65.07;41.72;;;4.90;99.90;;;;;;4951813;29;20392;-82
2022/01/13 02:02:24;;;;;;;70.40;43.00;;;4.80;99.90;;;;;;4953191;29;20862;-81
2022/01/13 02:04:50;;;;;;;69.63;41.22;;;4.80;99.90;;;;;;4952121;29;20914;-80
2022/01/13 02:07:16;;;;;;;66.30;40.77;;;4.70;99.90;;;;;;4952825;29;20381;-82
2022/01/13 02:09:43;;;;;;;68.13;41.83;;;4.80;99.90;;;;;;4947918;28;20402;-81
2022/01/13 02:12:15;;;;;;;67.53;41.03;;;4.80;99.90;;;;;;4931706;29;20421;-82
2022/01/13 02:15:15;;;;;;;69.07;40.58;;;4.80;99.90;;;;;;4932178;29;20406;-81
2022/01/13 02:17:42;;;;;;;69.57;42.28;;;4.80;99.90;;;;;;4932512;29;20407;-81
2022/01/13 02:20:10;;;;;;;64.93;40.92;;;4.80;99.90;;;;;;4932378;29;20409;-82
2022/01/13 02:22:36;;;;;;;62.92;40.65;;;4.80;99.90;;;;;;4933657;29;20464;-81
2022/01/13 02:25:03;;;;;;;67.68;40.72;;;4.80;99.90;;;;;;4934493;29;20493;-81
2022/01/13 02:27:29;;;;;;;65.93;41.70;;;4.90;99.90;;;;;;4946191;29;20507;-81
2022/01/13 02:29:54;;;;;;;67.07;41.40;;;4.80;99.90;;;;;;4944402;29;20417;-82
2022/01/13 02:32:20;;;;;;;64.87;41.13;;;4.80;99.90;;;;;;4933869;29;20417;-81
2022/01/13 02:34:46;;;;;;;74.55;42.30;;;4.80;99.90;;;;;;4933995;29;20881;-80
2022/01/13 02:37:12;;;;;;;70.72;41.97;;;4.80;99.90;;;;;;4932365;29;20897;-82
2022/01/13 02:39:38;;;;;;;67.47;41.22;;;4.80;99.90;;;;;;4933714;29;20386;-82
2022/01/13 02:42:14;;;;;;;72.15;43.53;;;4.80;99.90;;;;;;4931800;29;20922;-81
2022/01/13 02:45:14;;;;;;;68.97;43.50;;;4.80;99.90;;;;;;4933618;29;20386;-81
2022/01/13 02:50:06;;;;;;;79.30;45.70;;;4.70;99.90;;;;;;4933825;29;20903;-80
2022/01/13 02:52:32;;;;;;;79.95;46.60;;;4.70;99.90;;;;;;4932190;29;20942;-81
2022/01/13 02:54:57;;;;;;;78.63;45.97;;;4.70;99.90;;;;;;4933258;28;20480;-80
2022/01/13 02:57:23;;;;;;;73.87;44.47;;;4.70;99.90;;;;;;4931904;29;20406;-82
2022/01/13 02:59:49;;;;;;;81.33;45.47;;;4.70;99.90;;;;;;4931899;29;20469;-81
2022/01/13 03:02:14;;;;;;;70.70;44.30;;;4.70;99.90;;;;;;4933354;29;20393;-81
2022/01/13 03:04:47;;;;;;;74.93;46.50;;;4.80;99.90;;;;;;4932904;29;20912;-83
2022/01/13 03:07:13;;;;;;;74.68;44.95;;;4.80;99.90;;;;;;4932883;29;20390;-84
2022/01/13 03:09:38;;;;;;;80.90;46.22;;;4.80;99.90;;;;;;4936915;29;20440;-82
2022/01/13 03:12:04;;;;;;;78.87;45.40;;;4.70;99.90;;;;;;4951441;28;20981;-84
2022/01/13 03:14:30;;;;;;;69.53;43.83;;;4.70;99.90;;;;;;4952231;29;20463;-81
2022/01/13 03:16:56;;;;;;;73.13;44.07;;;4.80;99.90;;;;;;4951446;29;20484;-82
2022/01/13 03:19:22;;;;;;;76.83;45.27;;;4.70;99.90;;;;;;4951491;29;20455;-82
2022/01/13 03:21:48;;;;;;;75.50;44.57;;;4.60;99.90;;;;;;4951897;28;20401;-83
2022/01/13 03:24:14;;;;;;;76.72;44.80;;;4.70;99.90;;;;;;4951017;28;20400;-81
2022/01/13 03:26:41;;;;;;;72.07;44.43;;;4.70;99.90;;;;;;4950317;29;20392;-83
2022/01/13 03:31:39;;;;;;;75.15;44.58;;;4.70;99.90;;;;;;4952269;29;20898;-82
2022/01/13 03:34:04;;;;;;;72.50;44.35;;;4.70;99.90;;;;;;4951531;28;20381;-82
2022/01/13 03:36:30;;;;;;;74.50;44.70;;;4.70;99.90;;;;;;4950117;29;20395;-81
2022/01/13 03:38:56;;;;;;;75.07;44.77;;;4.70;99.90;;;;;;4952786;29;20531;-82
2022/01/13 03:41:22;;;;;;;73.07;43.87;;;4.70;99.90;;;;;;4951262;28;20407;-82
2022/01/13 03:43:52;;;;;;;76.33;45.27;;;4.60;99.90;;;;;;4950371;29;20926;-82
2022/01/13 03:46:18;;;;;;;82.20;47.97;;;4.60;99.90;;;;;;4950231;29;21074;-82
2022/01/13 03:48:44;;;;;;;78.95;46.80;;;4.60;99.90;;;;;;4949868;29;20504;-82
2022/01/13 03:51:10;;;;;;;84.00;48.08;;;4.60;99.90;;;;;;4951382;29;20412;-82
2022/01/13 03:53:38;;;;;;;79.90;46.92;;;4.60;99.90;;;;;;4951345;29;20380;-83
2022/01/13 03:56:35;;;;;;;83.47;48.17;;;4.70;99.90;;;;;;4951045;28;20399;-81
2022/01/13 03:59:25;;;;;;;88.20;48.88;;;4.80;99.90;;;;;;4950230;29;20395;-81
2022/01/13 04:01:57;;;;;;;86.28;49.30;;;4.70;99.90;;;;;;4949492;29;20392;-81
2022/01/13 04:04:22;;;;;;;85.72;49.33;;;4.70;99.90;;;;;;4949834;29;20900;-83
2022/01/13 04:06:48;;;;;;;89.60;50.27;;;4.70;99.90;;;;;;4949978;29;20392;-83
2022/01/13 04:09:22;;;;;;;91.00;51.13;;;4.60;99.90;;;;;;4950602;29;20387;-81
2022/01/13 04:11:50;;;;;;;90.35;50.58;;;4.70;99.90;;;;;;4931353;29;20488;-81
2022/01/13 04:14:19;;;;;;;95.13;50.67;;;4.60;99.90;;;;;;4931874;29;20393;-82
2022/01/13 04:16:45;;;;;;;90.30;50.17;;;4.60;99.90;;;;;;4932291;29;20401;-82
2022/01/13 04:19:11;;;;;;;92.18;50.75;;;4.60;99.90;;;;;;4930952;29;20875;-80
2022/01/13 04:21:38;;;;;;;92.63;50.77;;;4.70;99.90;;;;;;4930732;29;20418;-82
2022/01/13 04:24:04;;;;;;;95.30;50.63;;;4.60;99.90;;;;;;4930891;29;20394;-82
2022/01/13 04:26:33;;;;;;;93.30;51.20;;;4.60;99.90;;;;;;4931809;28;20485;-81
2022/01/13 04:29:19;;;;;;;94.80;53.42;;;4.60;99.90;;;;;;4932356;29;20417;-82
2022/01/13 04:31:50;;;;;;;99.35;52.75;;;4.60;99.90;;;;;;4931525;29;20457;-81
2022/01/13 04:34:17;;;;;;;95.03;52.80;;;4.60;99.90;;;;;;4930545;29;20777;-82
2022/01/13 04:36:43;;;;;;;92.53;50.47;;;4.60;99.90;;;;;;4933723;29;20448;-82
2022/01/13 04:39:10;;;;;;;91.72;52.10;;;4.70;99.90;;;;;;4935850;29;20382;-83
2022/01/13 04:41:38;;;;;;;95.55;51.97;;;4.70;99.90;;;;;;4935599;28;20398;-84
2022/01/13 04:44:09;;;;;;;100.47;54.78;;;4.60;99.90;;;;;;4934526;29;20400;-81
2022/01/13 04:46:36;;;;;;;101.27;53.63;;;4.60;99.90;;;;;;4933993;29;20390;-80
2022/01/13 04:49:03;;;;;;;99.93;53.55;;;4.60;99.90;;;;;;4933720;29;20745;-80
2022/01/13 04:51:30;;;;;;;105.07;53.72;;;4.60;99.90;;;;;;4933902;29;20414;-82
2022/01/13 04:53:56;;;;;;;94.93;51.97;;;4.70;99.90;;;;;;4935478;29;20390;-80
2022/01/13 04:56:31;;;;;;;100.88;53.10;;;4.60;99.90;;;;;;4933716;28;20398;-82
2022/01/13 04:58:58;;;;;;;106.47;55.22;;;4.60;99.90;;;;;;4935195;29;20401;-83
2022/01/13 05:01:24;;;;;;;101.65;53.95;;;4.60;99.90;;;;;;4935106;29;20751;-82
2022/01/13 05:03:53;;;;;;;104.72;53.45;;;4.50;99.90;;;;;;4946092;29;20393;-82
2022/01/13 05:06:19;;;;;;;95.72;52.90;;;4.50;99.90;;;;;;4943325;29;20409;-82
2022/01/13 05:08:46;;;;;;;102.43;53.53;;;4.60;99.90;;;;;;4935386;29;20399;-83
2022/01/13 05:11:11;;;;;;;106.47;53.53;;;4.60;99.90;;;;;;4949634;29;20408;-82
2022/01/13 05:13:37;;;;;;;101.43;53.63;;;4.60;99.90;;;;;;4943938;28;20938;-84
2022/01/13 05:16:03;;;;;;;97.15;52.65;;;4.50;99.90;;;;;;4931279;29;20392;-83
2022/01/13 05:18:48;;;;;;;104.28;53.33;;;4.50;99.90;;;;;;4933650;29;20457;-82
2022/01/13 05:21:26;;;;;;;101.97;52.80;;;4.50;99.90;;;;;;4925560;29;20453;-83
2022/01/13 05:23:52;;;;;;;101.80;52.25;;;4.50;99.90;;;;;;4948153;29;20414;-83
2022/01/13 05:26:20;;;;;;;103.03;52.90;;;4.40;99.90;;;;;;4952490;29;20392;-83
2022/01/13 05:28:46;;;;;;;91.30;50.08;;;4.50;99.90;;;;;;4953746;28;20417;-82
2022/01/13 05:31:12;;;;;;;103.80;52.58;;;4.50;99.90;;;;;;4952607;29;20416;-83
2022/01/13 05:33:38;;;;;;;97.23;51.03;;;4.50;99.90;;;;;;4952473;29;20384;-82
2022/01/13 05:36:04;;;;;;;99.50;52.30;;;4.50;99.90;;;;;;4937159;29;20494;-83
2022/01/13 05:38:29;;;;;;;90.15;49.55;;;4.50;99.90;;;;;;4930157;29;20398;-83
2022/01/13 05:40:58;;;;;;;98.90;50.90;;;4.60;99.90;;;;;;4948349;29;20746;-83
2022/01/13 05:43:24;;;;;;;100.70;51.05;;;4.50;99.90;;;;;;4932290;29;20433;-83
2022/01/13 05:45:49;;;;;;;102.97;52.27;;;4.50;99.90;;;;;;4914447;29;20454;-81
2022/01/13 05:48:15;;;;;;;106.77;53.20;;;4.50;99.90;;;;;;4931767;29;20406;-81
2022/01/13 05:50:41;;;;;;;101.40;51.43;;;4.40;99.90;;;;;;4931170;29;20479;-82
2022/01/13 05:53:07;;;;;;;95.50;49.80;;;4.50;99.90;;;;;;4932339;29;20496;-79
2022/01/13 05:55:33;;;;;;;96.07;50.27;;;4.60;99.90;;;;;;4933424;29;20549;-80
2022/01/13 05:57:59;;;;;;;103.03;50.60;;;4.60;99.90;;;;;;4951534;28;20408;-80
2022/01/13 06:00:25;;;;;;;97.47;48.92;;;4.50;99.90;;;;;;4945069;29;20911;-84
2022/01/13 06:02:51;;;;;;;101.78;50.20;;;4.50;99.90;;;;;;4932747;29;20805;-80
2022/01/13 06:05:18;;;;;;;100.65;49.97;;;4.50;99.90;;;;;;4933264;29;20386;-82
2022/01/13 06:07:45;;;;;;;98.95;48.30;;;4.40;99.90;;;;;;4934724;29;20418;-82
2022/01/13 06:10:18;;;;;;;101.55;49.60;;;4.50;99.90;;;;;;4932847;29;20401;-81
2022/01/13 06:12:43;;;;;;;100.15;48.42;;;4.50;99.90;;;;;;4956585;28;20459;-80
2022/01/13 06:15:13;;;;;;;97.88;47.60;;;4.50;99.90;;;;;;4951418;29;20465;-81
2022/01/13 06:17:40;;;;;;;96.75;48.53;;;4.50;99.90;;;;;;4952567;29;20412;-81
2022/01/13 06:20:08;;;;;;;99.22;48.80;;;4.50;99.90;;;;;;4951868;29;20408;-80
2022/01/13 06:22:34;;;;;;;99.50;48.40;;;4.50;99.90;;;;;;4946849;29;20829;-82
2022/01/13 06:25:02;;;;;;;94.20;47.05;;;4.60;99.90;;;;;;4932755;29;20401;-82
2022/01/13 06:27:27;;;;;;;90.90;47.67;;;4.60;99.90;;;;;;4931451;28;20418;-81
2022/01/13 06:29:53;;;;;;;95.23;47.63;;;4.60;99.90;;;;;;4932111;29;21003;-82
2022/01/13 06:32:22;;;;;;;92.75;48.03;;;4.60;99.90;;;;;;4933226;29;20477;-82
2022/01/13 06:34:49;;;;;;;99.10;48.40;;;4.50;99.90;;;;;;4928735;29;20822;-81
2022/01/13 06:37:15;;;;;;;101.13;49.25;;;4.60;99.90;;;;;;4922754;29;20393;-81
2022/01/13 06:39:41;;;;;;;98.35;48.78;;;4.60;99.90;;;;;;4931869;29;20397;-83
2022/01/13 06:42:07;;;;;;;101.57;48.25;;;4.60;99.90;;;;;;4933275;29;20389;-82
2022/01/13 06:44:32;;;;;;;100.47;48.58;;;4.60;99.90;;;;;;4931195;29;20425;-80
2022/01/13 06:46:58;;;;;;;94.23;48.77;;;4.60;99.90;;;;;;4931900;29;20927;-81
2022/01/13 06:49:24;;;;;;;102.00;49.53;;;4.70;99.90;;;;;;4931070;29;20476;-82
2022/01/13 06:51:49;;;;;;;108.97;52.07;;;4.70;99.90;;;;;;4933152;29;20484;-81
2022/01/13 06:54:15;;;;;;;115.60;53.55;;;4.60;99.90;;;;;;4930714;29;20401;-82
2022/01/13 06:56:40;;;;;;;109.23;51.90;;;4.50;99.90;;;;;;4933227;29;20888;-82
2022/01/13 06:59:10;;;;;;;114.70;53.07;;;4.60;99.90;;;;;;4931393;28;20752;-84
2022/01/13 07:01:40;;;;;;;118.47;54.73;;;4.50;99.90;;;;;;4931104;29;20461;-83
2022/01/13 07:04:12;;;;;;;117.25;54.45;;;4.50;99.90;;;;;;4932252;29;20398;-80
2022/01/13 07:06:38;;;;;;;117.95;54.90;;;4.60;99.90;;;;;;4932155;29;20402;-83
2022/01/13 07:09:07;;;;;;;116.97;54.20;;;4.60;99.90;;;;;;4931214;29;20968;-82
2022/01/13 07:11:33;;;;;;;116.43;52.87;;;4.60;99.90;;;;;;4947526;29;20410;-83
2022/01/13 07:13:59;;;;;;;116.22;54.65;;;4.50;99.90;;;;;;4931708;28;20808;-81
2022/01/13 07:16:25;;;;;;;113.40;53.65;;;4.60;99.90;;;;;;4931908;29;20498;-80
2022/01/13 07:18:50;;;;;;;118.72;53.28;;;4.60;99.90;;;;;;4930977;29;20402;-82
2022/01/13 07:21:17;;;;;;;121.53;54.03;;;4.60;99.90;;;;;;4948426;29;20493;-82
2022/01/13 07:23:43;;;;;;;114.78;52.83;;;4.50;99.90;;;;;;4930747;29;20849;-81
2022/01/13 07:26:09;;;;;;;127.32;56.17;;;4.50;99.90;;;;;;4931892;29;20543;-81
2022/01/13 07:28:34;;;;;;;117.80;53.72;;;4.50;99.90;;;;;;4935506;29;20425;-82
2022/01/13 07:31:00;;;;;;;127.65;54.17;;;4.50;99.90;;;;;;4934002;29;20417;-81
2022/01/13 07:33:27;;;;;;;124.50;54.55;;;4.60;99.90;;;;;;4932412;29;20402;-83
2022/01/13 07:35:54;;;;;;;119.93;53.58;;;4.60;99.90;;;;;;4932179;29;20402;-83
2022/01/13 07:38:20;;;;;;;113.32;52.40;;;4.60;99.90;;;;;;4930318;29;20514;-81
2022/01/13 07:40:46;;;;;;;124.85;54.97;;;4.60;99.90;;;;;;4932220;29;20405;-83
2022/01/13 07:43:11;;;;;;;117.47;53.15;;;4.60;99.90;;;;;;4927194;29;20391;-82
2022/01/13 07:45:37;;;;;;;120.07;54.33;;;4.60;99.90;;;;;;4922509;29;20402;-82
2022/01/13 07:48:03;;;;;;;121.30;54.05;;;4.60;99.90;;;;;;4931338;29;20409;-81
2022/01/13 07:50:29;;;;;;;127.32;54.78;;;4.60;99.90;;;;;;4936701;29;20455;-81
2022/01/13 07:52:54;;;;;;;131.35;56.58;;;4.60;99.90;;;;;;4928363;29;20406;-81
2022/01/13 07:55:21;;;;;;;127.40;55.50;;;4.60;99.90;;;;;;4946430;29;20394;-81
2022/01/13 07:57:49;;;;;;;129.32;56.03;;;4.60;99.90;;;;;;4930348;29;21430;-82
2022/01/13 08:00:18;;;;;;;132.90;56.60;;;4.60;99.90;;;;;;4932203;28;20417;-82
2022/01/13 08:02:43;;;;;;;131.73;56.13;;;4.50;99.90;;;;;;4933572;29;20829;-83
2022/01/13 08:05:10;;;;;;;135.82;57.08;;;4.60;99.90;;;;;;4931650;29;20408;-82
2022/01/13 08:08:24;;;;;;;130.37;57.80;;;4.60;99.90;;;;;;4933100;29;20396;-83
2022/01/13 08:10:28;;;;;;;129.25;55.55;;;4.60;99.90;;;;;;4926787;28;20800;-81
2022/01/13 08:12:54;;;;;;;132.05;56.47;;;4.60;99.90;;;;;;4937071;29;20399;-81
2022/01/13 08:15:26;;;;;;;122.97;55.40;;;4.70;99.90;;;;;;4936870;29;20398;-82
2022/01/13 08:20:53;;;;;;;;;;;;;;;;;;;;;
2022/01/13 08:23:28;;;;;;;125.68;54.33;;;4.60;99.90;;;;;;4941686;29;20465;-81
2022/01/13 08:25:53;;;;;;;121.65;54.53;;;4.60;99.90;;;;;;4934670;29;20403;-81
2022/01/13 08:28:33;;;;;;;119.45;53.28;;;4.70;99.90;;;;;;4945208;28;20421;-83
2022/01/13 08:31:03;;;;;;;125.85;54.80;;;4.70;99.90;;;;;;4940306;29;20900;-83
2022/01/13 08:33:39;;;;;;;122.85;53.40;;;4.70;99.90;;;;;;4941101;29;20405;-82
2022/01/13 08:36:11;;;;;;;112.78;51.38;;;4.80;99.90;;;;;;4940073;29;20402;-83
2022/01/13 08:38:57;;;;;;;118.85;52.83;;;4.70;99.90;;;;;;4940116;29;20397;-82
2022/01/13 08:41:39;;;;;;;119.72;52.05;;;4.70;99.90;;;;;;4931638;29;20414;-81
2022/01/13 08:44:04;;;;;;;127.63;54.13;;;4.70;99.90;;;;;;4931395;28;20890;-82
2022/01/13 08:46:30;;;;;;;121.27;52.87;;;4.70;99.90;;;;;;4931935;29;20382;-82
2022/01/13 08:48:56;;;;;;;120.70;52.05;;;4.60;99.90;;;;;;4931551;29;20436;-83
2022/01/13 08:51:21;;;;;;;118.22;52.03;;;4.60;99.90;;;;;;4929701;29;20437;-82
2022/01/13 08:53:48;;;;;;;116.13;51.13;;;4.80;99.90;;;;;;4931328;29;20908;-80
2022/01/13 08:56:14;;;;;;;124.13;51.83;;;4.80;99.90;;;;;;4927193;29;20407;-81
2022/01/13 08:58:41;;;;;;;114.60;50.47;;;4.70;99.90;;;;;;4920942;28;20397;-81
2022/01/13 09:01:07;;;;;;;110.68;51.28;;;4.80;99.90;;;;;;4928282;29;20395;-82
2022/01/13 09:03:34;;;;;;;115.47;51.37;;;4.80;99.90;;;;;;4918823;29;20461;-83
2022/01/13 09:05:59;;;;;;;110.38;51.50;;;4.80;99.90;;;;;;4929554;29;20402;-82
2022/01/13 09:08:25;;;;;;;111.88;49.85;;;4.70;99.90;;;;;;4930944;29;20409;-82
2022/01/13 09:10:51;;;;;;;116.00;49.78;;;4.80;99.90;;;;;;4931181;29;20405;-82
2022/01/13 09:13:17;;;;;;;119.85;52.35;;;4.80;99.90;;;;;;4945803;28;20424;-82
2022/01/13 09:15:52;;;;;;;110.30;50.55;;;4.80;99.90;;;;;;4928794;29;20462;-81
2022/01/13 09:18:30;;;;;;;110.32;51.08;;;4.90;99.90;;;;;;4931693;29;20395;-83
2022/01/13 09:20:56;;;;;;;107.33;49.17;;;4.80;99.90;;;;;;4932448;29;20406;-81
2022/01/13 09:23:22;;;;;;;106.03;48.23;;;4.90;99.90;;;;;;4934696;29;20389;-81
2022/01/13 09:25:48;;;;;;;101.10;48.10;;;5.00;99.90;;;;;;4934456;29;20436;-82
2022/01/13 09:28:13;;;;;;;105.83;49.37;;;5.10;99.90;;;;;;4933320;29;20390;-82
2022/01/13 09:30:39;;;;;;;106.60;48.87;;;5.00;99.90;;;;;;4933278;29;20424;-82
2022/01/13 09:33:06;;;;;;;104.80;49.13;;;5.10;99.90;;;;;;4934381;29;20794;-81
2022/01/13 09:35:33;;;;;;;102.88;46.85;;;5.10;99.90;;;;;;4931185;29;20423;-81
2022/01/13 09:38:00;;;;;;;99.32;46.50;;;5.10;99.90;;;;;;4935675;29;20403;-83
2022/01/13 09:40:26;;;;;;;102.97;46.22;;;5.10;99.90;;;;;;4935051;29;20432;-81
2022/01/13 09:42:52;;;;;;;97.88;46.67;;;5.10;99.90;;;;;;4935908;29;20394;-83
2022/01/13 09:45:19;;;;;;;88.35;45.42;;;5.10;99.90;;;;;;4933026;28;20420;-82
2022/01/13 09:47:48;;;;;;;91.25;45.47;;;5.10;99.90;;;;;;4931608;29;20728;-83
2022/01/13 09:50:19;;;;;;;94.97;43.97;;;5.10;99.90;;;;;;4934659;29;20886;-82
2022/01/13 09:52:46;;;;;;;89.30;44.08;;;5.10;99.90;;;;;;4934341;29;20422;-82
2022/01/13 09:55:14;;;;;;;87.18;43.00;;;5.00;99.90;;;;;;4934031;29;20444;-83
2022/01/13 09:57:43;;;;;;;99.90;46.03;;;5.10;99.90;;;;;;4934077;29;20390;-83
2022/01/13 10:00:11;;;;;;;95.77;45.37;;;5.00;99.90;;;;;;4933656;28;20417;-82
2022/01/13 10:02:37;;;;;;;92.93;44.83;;;4.90;99.90;;;;;;4929882;29;20398;-82
2022/01/13 10:05:04;;;;;;;90.45;44.40;;;4.90;99.90;;;;;;4931957;29;20413;-82
2022/01/13 10:07:43;;;;;;;92.78;45.13;;;5.00;99.90;;;;;;4934430;29;20497;-83
2022/01/13 10:10:15;;;;;;;88.47;43.85;;;5.00;99.90;;;;;;4932605;29;20900;-82
2022/01/13 10:12:47;;;;;;;82.47;42.63;;;5.10;99.90;;;;;;4928311;29;20422;-82
2022/01/13 10:18:05;;;;;;;84.28;42.40;;;4.90;99.90;;;;;;4932955;29;20903;-82
2022/01/13 10:20:32;;;;;;;80.18;39.92;;;5.00;99.90;;;;;;4933009;29;20904;-81
2022/01/13 10:23:08;;;;;;;82.57;41.03;;;5.10;99.90;;;;;;4937941;29;20425;-82
2022/01/13 10:25:40;;;;;;;77.35;41.08;;;5.10;99.90;;;;;;4945575;29;20394;-82
2022/01/13 10:28:15;;;;;;;79.22;40.53;;;5.10;99.90;;;;;;4947059;29;20412;-81
2022/01/13 10:30:42;;;;;;;73.40;39.00;;;5.10;99.90;;;;;;4929710;29;20418;-82
2022/01/13 10:33:22;;;;;;;71.40;38.05;;;5.20;99.90;;;;;;4934366;29;20386;-81
2022/01/13 10:35:54;;;;;;;67.70;36.85;;;5.30;99.90;;;;;;4931376;29;20400;-83
2022/01/13 10:38:21;;;;;;;67.72;36.28;;;5.40;99.90;;;;;;4933243;29;20453;-81
2022/01/13 10:40:49;;;;;;;63.30;35.63;;;5.40;99.90;;;;;;4930975;28;20515;-82
2022/01/13 10:43:24;;;;;;;64.00;35.15;;;5.40;99.90;;;;;;4932378;29;20390;-83
2022/01/13 10:45:52;;;;;;;60.72;34.22;;;5.50;99.90;;;;;;4932204;29;20809;-81
2022/01/13 10:48:37;;;;;;;60.20;33.17;;;5.40;99.90;;;;;;4929998;29;20421;-81
2022/01/13 10:51:07;;;;;;;59.90;32.92;;;5.40;99.90;;;;;;4930923;29;20469;-82
2022/01/13 10:53:36;;;;;;;58.22;32.40;;;5.40;99.90;;;;;;4933576;29;20880;-82
2022/01/13 10:56:09;;;;;;;57.63;31.98;;;5.50;99.90;;;;;;4932798;29;20394;-81
2022/01/13 10:58:38;;;;;;;60.25;32.30;;;5.40;99.90;;;;;;4931870;29;20406;-81
2022/01/13 11:01:05;;;;;;;56.97;31.77;;;5.40;99.90;;;;;;4931264;29;20449;-80
2022/01/13 11:03:34;;;;;;;62.35;33.00;;;5.30;99.90;;;;;;4932691;29;21470;-82
2022/01/13 11:06:03;;;;;;;53.40;31.25;;;5.30;99.90;;;;;;4929033;29;20409;-83
2022/01/13 11:08:43;;;;;;;56.13;31.10;;;5.30;99.90;;;;;;4934347;29;20473;-82
2022/01/13 11:11:20;;;;;;;54.00;30.73;;;5.40;99.90;;;;;;4929140;29;20480;-81
2022/01/13 11:14:03;;;;;;;53.05;30.25;;;5.50;99.90;;;;;;4931336;28;20416;-81
2022/01/13 11:16:30;;;;;;;49.50;29.65;;;5.50;99.90;;;;;;4926619;29;21001;-81
2022/01/13 11:18:57;;;;;;;48.72;29.25;;;5.60;99.90;;;;;;4932454;29;20397;-81
2022/01/13 11:21:24;;;;;;;50.70;29.17;;;5.50;99.90;;;;;;4931481;29;20528;-80
2022/01/13 11:23:51;;;;;;;47.75;28.40;;;5.60;99.90;;;;;;4931995;29;20903;-79
2022/01/13 11:26:19;;;;;;;45.65;28.10;;;5.60;99.90;;;;;;4932483;29;20402;-80
2022/01/13 11:28:45;;;;;;;45.90;27.52;;;5.80;99.90;;;;;;4931210;29;20386;-81
2022/01/13 11:31:11;;;;;;;43.72;26.63;;;5.70;99.90;;;;;;4934829;28;20533;-81
2022/01/13 11:33:38;;;;;;;43.75;26.48;;;5.80;99.90;;;;;;4931956;29;20497;-82
2022/01/13 11:36:06;;;;;;;41.78;26.48;;;5.90;99.90;;;;;;4933482;29;20444;-80
2022/01/13 11:38:32;;;;;;;44.50;26.45;;;5.90;99.90;;;;;;4930833;29;20391;-81
2022/01/13 11:41:03;;;;;;;44.13;26.37;;;5.90;99.90;;;;;;4930297;29;20418;-81
2022/01/13 11:43:41;;;;;;;41.70;26.13;;;5.80;99.90;;;;;;4932590;29;20944;-80
2022/01/13 11:46:18;;;;;;;40.97;26.40;;;5.90;99.90;;;;;;4928782;29;20416;-80
2022/01/13 11:49:11;;;;;;;41.58;26.83;;;5.90;99.90;;;;;;4935357;29;20398;-81
2022/01/13 11:54:37;;;;;;;38.60;25.30;;;5.90;99.90;;;;;;4938872;29;20397;-81
2022/01/13 11:57:21;;;;;;;39.92;26.00;;;5.90;99.90;;;;;;4936672;29;20394;-82
2022/01/13 11:59:56;;;;;;;39.80;26.13;;;5.80;99.90;;;;;;4944968;29;20432;-81
2022/01/13 12:02:26;;;;;;;43.57;26.20;;;5.80;99.90;;;;;;4932976;28;20406;-82
2022/01/13 12:05:17;;;;;;;43.95;26.73;;;5.80;99.90;;;;;;4930229;29;20397;-81
2022/01/13 12:07:59;;;;;;;43.13;27.40;;;5.80;99.90;;;;;;4935029;28;20411;-82
2022/01/13 12:10:24;;;;;;;43.83;27.65;;;5.70;99.90;;;;;;4950662;28;20447;-84
2022/01/13 12:12:51;;;;;;;43.07;26.33;;;5.80;99.90;;;;;;4917540;29;20561;-82
2022/01/13 12:15:18;;;;;;;42.63;26.42;;;5.80;99.90;;;;;;4929089;29;20951;-83
2022/01/13 12:18:03;;;;;;;40.97;26.15;;;5.80;99.90;;;;;;4927742;29;20398;-83
2022/01/13 12:20:56;;;;;;;40.30;26.10;;;5.80;99.90;;;;;;4928663;29;20402;-83
2022/01/13 12:23:43;;;;;;;38.92;26.08;;;5.80;99.90;;;;;;4927810;29;20736;-82
2022/01/13 12:26:33;;;;;;;42.13;26.35;;;5.80;99.90;;;;;;4929661;28;20461;-83
2022/01/13 12:29:15;;;;;;;39.10;25.40;;;5.80;99.90;;;;;;4927412;29;20401;-83
2022/01/13 12:31:51;;;;;;;38.58;25.70;;;5.80;99.90;;;;;;4927723;29;20422;-82
2022/01/13 12:34:32;;;;;;;38.28;25.45;;;5.80;99.90;;;;;;4927777;29;20386;-83
2022/01/13 12:37:19;;;;;;;39.17;25.08;;;5.80;99.90;;;;;;4927873;29;20433;-82
2022/01/13 12:39:59;;;;;;;40.75;25.50;;;5.70;99.90;;;;;;4927788;29;20469;-82
2022/01/13 12:42:36;;;;;;;38.90;25.20;;;5.70;99.90;;;;;;4929799;29;20397;-84
2022/01/13 12:47:47;;;;;;;37.10;24.85;;;5.70;99.90;;;;;;4930070;29;20397;-82
2022/01/13 12:50:25;;;;;;;35.87;24.70;;;5.70;99.90;;;;;;4929534;28;21008;-82
2022/01/13 12:52:52;;;;;;;37.83;24.30;;;5.70;99.90;;;;;;4929893;29;20417;-83
2022/01/13 12:55:18;;;;;;;34.15;23.27;;;5.60;99.90;;;;;;4929161;29;20896;-82
2022/01/13 12:57:51;;;;;;;36.03;23.60;;;5.70;99.90;;;;;;4929736;29;20904;-82
2022/01/13 13:00:20;;;;;;;36.88;23.98;;;5.70;99.90;;;;;;4932375;29;20440;-81
2022/01/13 13:02:56;;;;;;;36.97;23.33;;;5.80;99.90;;;;;;4932604;29;20365;-82
2022/01/13 13:05:32;;;;;;;34.88;23.85;;;5.80;99.90;;;;;;4933443;29;20385;-83
2022/01/13 13:07:58;;;;;;;33.70;23.13;;;5.70;99.90;;;;;;4935177;29;20366;-83
2022/01/13 13:10:24;;;;;;;37.60;24.35;;;5.60;99.90;;;;;;4924354;29;20975;-81
2022/01/13 13:12:55;;;;;;;35.33;23.23;;;5.60;99.90;;;;;;4932244;29;20477;-81
2022/01/13 13:17:52;;;;;;;37.75;24.00;;;5.70;99.90;;;;;;4934490;29;20402;-81